sensor_id;sensor_type;location;lat;lon;timestamp;pressure;altitude;pressure_sealevel;temperature;humidity
35419;BME280;21525;41.240;16.500;2022-10-31T00:00:21;101924.56;;;24.28;66.36
35419;BME280;21525;41.240;16.500;2022-10-31T00:02:47;101918.50;;;24.42;66.15
35419;BME280;21525;41.240;16.500;2022-10-31T00:05:13;101922.56;;;24.15;67.40
35419;BME280;21525;41.240;16.500;2022-10-31T00:07:39;101920.34;;;24.05;67.51
35419;BME280;21525;41.240;16.500;2022-10-31T00:10:05;101914.81;;;23.93;67.00
35419;BME280;21525;41.240;16.500;2022-10-31T00:12:31;101912.78;;;23.98;67.59
35419;BME280;21525;41.240;16.500;2022-10-31T00:14:57;101914.38;;;24.36;66.42
35419;BME280;21525;41.240;16.500;2022-10-31T00:17:22;101912.22;;;24.08;66.71
35419;BME280;21525;41.240;16.500;2022-10-31T00:19:48;101910.81;;;23.84;67.47
35419;BME280;21525;41.240;16.500;2022-10-31T00:22:14;101915.22;;;24.20;66.37
35419;BME280;21525;41.240;16.500;2022-10-31T00:24:40;101911.16;;;24.47;64.85
35419;BME280;21525;41.240;16.500;2022-10-31T00:27:05;101913.81;;;24.47;64.95
35419;BME280;21525;41.240;16.500;2022-10-31T00:29:31;101914.09;;;24.06;66.14
35419;BME280;21525;41.240;16.500;2022-10-31T00:31:57;101912.00;;;24.48;64.79
35419;BME280;21525;41.240;16.500;2022-10-31T00:34:23;101917.81;;;24.04;64.98
35419;BME280;21525;41.240;16.500;2022-10-31T00:36:48;101919.91;;;24.15;65.08
35419;BME280;21525;41.240;16.500;2022-10-31T00:39:15;101913.03;;;23.57;65.99
35419;BME280;21525;41.240;16.500;2022-10-31T00:41:41;101906.31;;;24.03;64.78
35419;BME280;21525;41.240;16.500;2022-10-31T00:44:11;101902.94;;;24.52;63.22
35419;BME280;21525;41.240;16.500;2022-10-31T00:46:37;101910.81;;;24.19;63.75
35419;BME280;21525;41.240;16.500;2022-10-31T00:49:02;101908.25;;;24.17;63.08
35419;BME280;21525;41.240;16.500;2022-10-31T00:51:28;101903.88;;;23.99;63.72
35419;BME280;21525;41.240;16.500;2022-10-31T00:53:54;101899.94;;;24.06;62.86
35419;BME280;21525;41.240;16.500;2022-10-31T00:56:19;101902.91;;;24.36;61.42
35419;BME280;21525;41.240;16.500;2022-10-31T00:58:45;101897.56;;;24.36;61.32
35419;BME280;21525;41.240;16.500;2022-10-31T01:01:11;101903.75;;;24.69;60.35
35419;BME280;21525;41.240;16.500;2022-10-31T01:03:38;101901.91;;;24.37;60.08
35419;BME280;21525;41.240;16.500;2022-10-31T01:06:11;101895.78;;;24.36;59.70
35419;BME280;21525;41.240;16.500;2022-10-31T01:08:38;101898.97;;;24.26;60.52
35419;BME280;21525;41.240;16.500;2022-10-31T01:11:16;101899.59;;;23.96;60.86
35419;BME280;21525;41.240;16.500;2022-10-31T01:13:43;101894.28;;;24.31;59.57
35419;BME280;21525;41.240;16.500;2022-10-31T01:16:17;101895.84;;;24.00;59.93
35419;BME280;21525;41.240;16.500;2022-10-31T01:18:44;101895.03;;;24.50;58.74
35419;BME280;21525;41.240;16.500;2022-10-31T01:21:13;101893.44;;;24.30;58.65
35419;BME280;21525;41.240;16.500;2022-10-31T01:23:39;101888.69;;;24.53;57.88
35419;BME280;21525;41.240;16.500;2022-10-31T01:28:32;101894.72;;;24.39;57.46
35419;BME280;21525;41.240;16.500;2022-10-31T01:31:06;101899.56;;;24.65;56.99
35419;BME280;21525;41.240;16.500;2022-10-31T01:33:34;101896.31;;;24.26;57.24
35419;BME280;21525;41.240;16.500;2022-10-31T01:36:00;101892.25;;;24.36;57.35
35419;BME280;21525;41.240;16.500;2022-10-31T01:38:26;101900.81;;;24.41;56.75
35419;BME280;21525;41.240;16.500;2022-10-31T01:40:52;101895.03;;;24.16;56.84
35419;BME280;21525;41.240;16.500;2022-10-31T01:43:19;101887.69;;;24.21;56.73
35419;BME280;21525;41.240;16.500;2022-10-31T01:45:52;101888.47;;;24.05;56.88
35419;BME280;21525;41.240;16.500;2022-10-31T01:48:21;101885.38;;;24.32;56.72
35419;BME280;21525;41.240;16.500;2022-10-31T01:50:51;101884.94;;;24.22;56.57
35419;BME280;21525;41.240;16.500;2022-10-31T01:53:19;101882.09;;;24.27;56.08
35419;BME280;21525;41.240;16.500;2022-10-31T01:55:46;101881.88;;;23.78;56.83
35419;BME280;21525;41.240;16.500;2022-10-31T01:58:18;101881.13;;;24.10;56.00
35419;BME280;21525;41.240;16.500;2022-10-31T02:00:49;101881.66;;;24.17;55.91
35419;BME280;21525;41.240;16.500;2022-10-31T02:03:18;101876.91;;;24.24;55.38
35419;BME280;21525;41.240;16.500;2022-10-31T02:05:45;101866.91;;;23.94;55.63
35419;BME280;21525;41.240;16.500;2022-10-31T02:10:42;101865.81;;;24.33;54.67
35419;BME280;21525;41.240;16.500;2022-10-31T02:13:08;101865.31;;;24.42;53.68
35419;BME280;21525;41.240;16.500;2022-10-31T02:15:44;101869.09;;;23.86;55.75
35419;BME280;21525;41.240;16.500;2022-10-31T02:18:11;101860.50;;;23.98;55.10
35419;BME280;21525;41.240;16.500;2022-10-31T02:20:45;101865.41;;;24.23;53.90
35419;BME280;21525;41.240;16.500;2022-10-31T02:34:00;101871.03;;;24.17;53.02
35419;BME280;21525;41.240;16.500;2022-10-31T02:39:24;101866.06;;;24.28;52.48
35419;BME280;21525;41.240;16.500;2022-10-31T02:42:07;101865.66;;;23.84;52.86
35419;BME280;21525;41.240;16.500;2022-10-31T02:44:39;101871.50;;;23.91;53.27
35419;BME280;21525;41.240;16.500;2022-10-31T02:47:16;101873.63;;;23.84;52.68
35419;BME280;21525;41.240;16.500;2022-10-31T02:52:24;101870.44;;;23.95;51.92
35419;BME280;21525;41.240;16.500;2022-10-31T02:54:50;101861.88;;;24.05;51.94
35419;BME280;21525;41.240;16.500;2022-10-31T02:57:25;101860.50;;;24.33;51.00
35419;BME280;21525;41.240;16.500;2022-10-31T03:00:04;101865.34;;;24.25;50.53
35419;BME280;21525;41.240;16.500;2022-10-31T03:03:04;101862.28;;;24.15;50.29
35419;BME280;21525;41.240;16.500;2022-10-31T03:11:24;101867.91;;;23.92;50.56
35419;BME280;21525;41.240;16.500;2022-10-31T03:14:09;101861.19;;;23.85;50.89
35419;BME280;21525;41.240;16.500;2022-10-31T03:16:50;101869.88;;;23.88;50.64
35419;BME280;21525;41.240;16.500;2022-10-31T03:19:29;101861.72;;;24.08;49.97
35419;BME280;21525;41.240;16.500;2022-10-31T03:21:57;101871.59;;;24.24;49.39
35419;BME280;21525;41.240;16.500;2022-10-31T03:24:29;101862.22;;;24.34;48.89
35419;BME280;21525;41.240;16.500;2022-10-31T03:26:59;101869.34;;;23.99;49.70
35419;BME280;21525;41.240;16.500;2022-10-31T03:29:28;101868.00;;;23.90;49.76
35419;BME280;21525;41.240;16.500;2022-10-31T03:34:54;101875.63;;;23.62;50.50
35419;BME280;21525;41.240;16.500;2022-10-31T03:37:22;101876.03;;;23.89;49.99
35419;BME280;21525;41.240;16.500;2022-10-31T03:39:53;101877.22;;;24.18;48.86
35419;BME280;21525;41.240;16.500;2022-10-31T03:42:24;101878.06;;;24.18;49.38
35419;BME280;21525;41.240;16.500;2022-10-31T03:47:31;101883.16;;;23.71;49.14
35419;BME280;21525;41.240;16.500;2022-10-31T03:49:59;101886.53;;;23.92;49.68
35419;BME280;21525;41.240;16.500;2022-10-31T03:52:40;101877.06;;;23.86;49.56
35419;BME280;21525;41.240;16.500;2022-10-31T03:57:57;101873.06;;;24.12;49.19
35419;BME280;21525;41.240;16.500;2022-10-31T04:00:25;101878.53;;;24.09;49.46
35419;BME280;21525;41.240;16.500;2022-10-31T04:03:00;101883.00;;;24.08;48.84
35419;BME280;21525;41.240;16.500;2022-10-31T04:05:31;101877.59;;;23.75;49.88
35419;BME280;21525;41.240;16.500;2022-10-31T04:08:00;101880.78;;;23.46;50.54
35419;BME280;21525;41.240;16.500;2022-10-31T04:10:27;101881.66;;;23.83;50.30
35419;BME280;21525;41.240;16.500;2022-10-31T04:13:08;101878.16;;;24.17;48.77
35419;BME280;21525;41.240;16.500;2022-10-31T04:15:59;101878.47;;;23.93;49.85
35419;BME280;21525;41.240;16.500;2022-10-31T04:18:25;101886.44;;;24.10;49.33
35419;BME280;21525;41.240;16.500;2022-10-31T04:21:04;101886.28;;;24.13;49.38
35419;BME280;21525;41.240;16.500;2022-10-31T04:23:30;101884.25;;;24.19;49.44
35419;BME280;21525;41.240;16.500;2022-10-31T04:25:57;101884.09;;;23.87;49.94
35419;BME280;21525;41.240;16.500;2022-10-31T04:28:23;101890.19;;;23.89;50.51
35419;BME280;21525;41.240;16.500;2022-10-31T04:30:50;101890.69;;;24.32;49.55
35419;BME280;21525;41.240;16.500;2022-10-31T04:33:16;101888.38;;;24.59;48.83
35419;BME280;21525;41.240;16.500;2022-10-31T04:35:44;101883.41;;;24.01;49.81
35419;BME280;21525;41.240;16.500;2022-10-31T04:38:11;101887.22;;;24.12;50.04
35419;BME280;21525;41.240;16.500;2022-10-31T04:40:38;101889.06;;;23.76;50.52
35419;BME280;21525;41.240;16.500;2022-10-31T04:43:22;101898.47;;;23.83;51.24
35419;BME280;21525;41.240;16.500;2022-10-31T04:45:48;101895.53;;;23.53;52.14
35419;BME280;21525;41.240;16.500;2022-10-31T04:48:14;101895.13;;;23.97;51.38
35419;BME280;21525;41.240;16.500;2022-10-31T04:50:42;101902.09;;;23.99;51.23
35419;BME280;21525;41.240;16.500;2022-10-31T04:53:08;101909.72;;;23.88;51.91
35419;BME280;21525;41.240;16.500;2022-10-31T04:55:42;101910.72;;;23.86;51.77
35419;BME280;21525;41.240;16.500;2022-10-31T04:58:16;101912.47;;;23.87;52.09
35419;BME280;21525;41.240;16.500;2022-10-31T05:00:43;101913.06;;;23.74;52.46
35419;BME280;21525;41.240;16.500;2022-10-31T05:03:08;101915.09;;;23.51;53.07
35419;BME280;21525;41.240;16.500;2022-10-31T05:05:34;101920.66;;;23.82;52.52
35419;BME280;21525;41.240;16.500;2022-10-31T05:08:02;101916.91;;;23.69;52.88
35419;BME280;21525;41.240;16.500;2022-10-31T05:10:30;101919.69;;;23.66;52.79
35419;BME280;21525;41.240;16.500;2022-10-31T05:12:59;101916.59;;;23.92;52.08
35419;BME280;21525;41.240;16.500;2022-10-31T05:15:46;101919.16;;;23.76;52.20
35419;BME280;21525;41.240;16.500;2022-10-31T05:18:30;101928.59;;;23.27;53.10
35419;BME280;21525;41.240;16.500;2022-10-31T05:21:31;101921.56;;;23.64;52.73
35419;BME280;21525;41.240;16.500;2022-10-31T05:24:02;101925.22;;;23.97;51.95
35419;BME280;21525;41.240;16.500;2022-10-31T05:26:28;101930.44;;;24.16;51.67
35419;BME280;21525;41.240;16.500;2022-10-31T05:28:54;101923.41;;;23.98;51.91
35419;BME280;21525;41.240;16.500;2022-10-31T05:31:20;101926.22;;;24.12;51.94
35419;BME280;21525;41.240;16.500;2022-10-31T05:33:47;101936.31;;;24.05;51.68
35419;BME280;21525;41.240;16.500;2022-10-31T05:36:32;101932.03;;;24.20;51.43
35419;BME280;21525;41.240;16.500;2022-10-31T05:39:00;101945.25;;;24.39;51.31
35419;BME280;21525;41.240;16.500;2022-10-31T05:41:34;101939.56;;;24.29;52.15
35419;BME280;21525;41.240;16.500;2022-10-31T05:44:04;101945.59;;;24.33;52.25
35419;BME280;21525;41.240;16.500;2022-10-31T05:46:35;101937.22;;;24.73;50.87
35419;BME280;21525;41.240;16.500;2022-10-31T05:49:09;101941.81;;;24.87;50.52
35419;BME280;21525;41.240;16.500;2022-10-31T05:51:58;101937.59;;;24.83;49.68
35419;BME280;21525;41.240;16.500;2022-10-31T05:54:33;101940.16;;;25.02;49.09
35419;BME280;21525;41.240;16.500;2022-10-31T05:56:58;101937.59;;;24.50;49.51
35419;BME280;21525;41.240;16.500;2022-10-31T05:59:24;101942.56;;;24.73;49.58
35419;BME280;21525;41.240;16.500;2022-10-31T06:01:50;101941.09;;;25.34;48.64
35419;BME280;21525;41.240;16.500;2022-10-31T06:04:29;101941.66;;;25.23;48.45
35419;BME280;21525;41.240;16.500;2022-10-31T06:06:57;101928.94;;;25.91;47.58
35419;BME280;21525;41.240;16.500;2022-10-31T06:09:24;101939.41;;;26.68;45.78
35419;BME280;21525;41.240;16.500;2022-10-31T06:11:50;101936.09;;;26.93;44.55
35419;BME280;21525;41.240;16.500;2022-10-31T06:14:36;101919.78;;;28.07;42.34
35419;BME280;21525;41.240;16.500;2022-10-31T06:17:02;101925.84;;;28.99;39.82
35419;BME280;21525;41.240;16.500;2022-10-31T06:19:46;101926.91;;;30.06;39.54
35419;BME280;21525;41.240;16.500;2022-10-31T06:22:18;101935.38;;;29.16;40.56
35419;BME280;21525;41.240;16.500;2022-10-31T06:24:43;101938.69;;;29.20;39.73
35419;BME280;21525;41.240;16.500;2022-10-31T06:27:31;101949.31;;;29.58;39.73
35419;BME280;21525;41.240;16.500;2022-10-31T06:30:03;101953.66;;;31.10;38.13
35419;BME280;21525;41.240;16.500;2022-10-31T06:32:34;101955.13;;;30.81;37.22
35419;BME280;21525;41.240;16.500;2022-10-31T06:35:00;101958.59;;;31.16;36.78
35419;BME280;21525;41.240;16.500;2022-10-31T06:37:26;101957.84;;;31.14;36.32
35419;BME280;21525;41.240;16.500;2022-10-31T06:39:56;101960.19;;;31.62;36.18
35419;BME280;21525;41.240;16.500;2022-10-31T06:42:22;101969.00;;;31.53;36.39
35419;BME280;21525;41.240;16.500;2022-10-31T06:44:48;101969.47;;;31.80;35.77
35419;BME280;21525;41.240;16.500;2022-10-31T06:47:51;101972.22;;;31.02;36.46
35419;BME280;21525;41.240;16.500;2022-10-31T06:50:24;101976.72;;;32.00;35.89
35419;BME280;21525;41.240;16.500;2022-10-31T06:52:56;101982.16;;;31.89;36.09
35419;BME280;21525;41.240;16.500;2022-10-31T06:55:24;101975.63;;;31.71;35.71
35419;BME280;21525;41.240;16.500;2022-10-31T06:57:54;101978.69;;;32.51;34.70
35419;BME280;21525;41.240;16.500;2022-10-31T07:00:21;101974.69;;;33.77;32.20
35419;BME280;21525;41.240;16.500;2022-10-31T07:03:00;101979.53;;;33.83;32.36
35419;BME280;21525;41.240;16.500;2022-10-31T07:05:28;101978.28;;;34.35;32.14
35419;BME280;21525;41.240;16.500;2022-10-31T07:07:55;101982.50;;;34.19;32.45
35419;BME280;21525;41.240;16.500;2022-10-31T07:10:23;101979.13;;;34.92;31.13
35419;BME280;21525;41.240;16.500;2022-10-31T07:12:56;101973.28;;;35.24;30.60
35419;BME280;21525;41.240;16.500;2022-10-31T07:15:23;101977.84;;;34.40;31.97
35419;BME280;21525;41.240;16.500;2022-10-31T07:17:49;101976.25;;;35.58;30.80
35419;BME280;21525;41.240;16.500;2022-10-31T07:20:15;101977.94;;;36.05;30.30
35419;BME280;21525;41.240;16.500;2022-10-31T07:22:41;101984.75;;;36.52;29.65
35419;BME280;21525;41.240;16.500;2022-10-31T07:25:08;101981.78;;;35.84;30.09
35419;BME280;21525;41.240;16.500;2022-10-31T07:27:53;101982.25;;;36.33;29.80
35419;BME280;21525;41.240;16.500;2022-10-31T07:30:19;101983.28;;;36.40;29.50
35419;BME280;21525;41.240;16.500;2022-10-31T07:32:49;101986.72;;;36.94;28.97
35419;BME280;21525;41.240;16.500;2022-10-31T07:35:21;101994.00;;;36.67;28.78
35419;BME280;21525;41.240;16.500;2022-10-31T07:37:56;101992.75;;;37.56;28.40
35419;BME280;21525;41.240;16.500;2022-10-31T07:40:23;101989.63;;;37.35;28.07
35419;BME280;21525;41.240;16.500;2022-10-31T07:42:51;101993.16;;;37.85;27.99
35419;BME280;21525;41.240;16.500;2022-10-31T07:45:35;101994.47;;;36.89;29.02
35419;BME280;21525;41.240;16.500;2022-10-31T07:48:20;101990.78;;;37.24;28.33
35419;BME280;21525;41.240;16.500;2022-10-31T07:51:05;101989.16;;;37.47;28.25
35419;BME280;21525;41.240;16.500;2022-10-31T07:53:55;101990.28;;;37.28;28.83
35419;BME280;21525;41.240;16.500;2022-10-31T07:56:23;101996.56;;;36.95;29.30
35419;BME280;21525;41.240;16.500;2022-10-31T07:58:49;101995.59;;;36.78;28.98
35419;BME280;21525;41.240;16.500;2022-10-31T08:01:15;101986.88;;;36.23;29.71
35419;BME280;21525;41.240;16.500;2022-10-31T08:03:50;101987.66;;;36.59;29.36
35419;BME280;21525;41.240;16.500;2022-10-31T08:06:51;101984.50;;;36.38;29.70
35419;BME280;21525;41.240;16.500;2022-10-31T08:09:27;101986.06;;;35.59;29.95
35419;BME280;21525;41.240;16.500;2022-10-31T08:11:57;101989.09;;;35.29;30.05
35419;BME280;21525;41.240;16.500;2022-10-31T08:14:24;101987.72;;;35.70;29.68
35419;BME280;21525;41.240;16.500;2022-10-31T08:16:52;101991.47;;;35.59;29.49
35419;BME280;21525;41.240;16.500;2022-10-31T08:19:18;101987.41;;;34.91;30.20
35419;BME280;21525;41.240;16.500;2022-10-31T08:21:44;101986.47;;;34.63;30.21
35419;BME280;21525;41.240;16.500;2022-10-31T08:24:10;101999.44;;;34.01;30.89
35419;BME280;21525;41.240;16.500;2022-10-31T08:26:37;101991.47;;;34.48;30.79
35419;BME280;21525;41.240;16.500;2022-10-31T08:29:06;101983.41;;;34.95;29.96
35419;BME280;21525;41.240;16.500;2022-10-31T08:31:34;101985.44;;;34.74;30.27
35419;BME280;21525;41.240;16.500;2022-10-31T08:34:39;101987.56;;;34.80;30.22
35419;BME280;21525;41.240;16.500;2022-10-31T08:37:37;101995.16;;;34.57;30.05
35419;BME280;21525;41.240;16.500;2022-10-31T08:40:04;101997.72;;;34.00;30.94
35419;BME280;21525;41.240;16.500;2022-10-31T08:42:33;101992.34;;;34.39;30.92
35419;BME280;21525;41.240;16.500;2022-10-31T08:44:59;101993.78;;;34.33;30.38
35419;BME280;21525;41.240;16.500;2022-10-31T08:47:25;101987.19;;;34.55;30.19
35419;BME280;21525;41.240;16.500;2022-10-31T08:49:54;101993.69;;;34.72;30.22
35419;BME280;21525;41.240;16.500;2022-10-31T08:52:23;101992.72;;;34.63;30.38
35419;BME280;21525;41.240;16.500;2022-10-31T08:54:49;101990.69;;;34.75;29.89
35419;BME280;21525;41.240;16.500;2022-10-31T08:57:41;101993.38;;;34.85;29.73
35419;BME280;21525;41.240;16.500;2022-10-31T09:00:07;101994.56;;;34.73;30.18
35419;BME280;21525;41.240;16.500;2022-10-31T09:02:58;101990.28;;;34.70;30.29
35419;BME280;21525;41.240;16.500;2022-10-31T09:05:25;101993.44;;;34.65;29.78
35419;BME280;21525;41.240;16.500;2022-10-31T09:07:54;101988.88;;;34.66;30.33
35419;BME280;21525;41.240;16.500;2022-10-31T09:10:20;101990.72;;;34.65;31.09
35419;BME280;21525;41.240;16.500;2022-10-31T09:12:46;101993.25;;;34.86;30.81
35419;BME280;21525;41.240;16.500;2022-10-31T09:15:30;101986.50;;;35.00;30.65
35419;BME280;21525;41.240;16.500;2022-10-31T09:18:13;101990.22;;;34.99;30.67
35419;BME280;21525;41.240;16.500;2022-10-31T09:21:00;101990.53;;;34.77;32.16
35419;BME280;21525;41.240;16.500;2022-10-31T09:23:28;101988.59;;;34.59;32.86
35419;BME280;21525;41.240;16.500;2022-10-31T09:25:54;101983.06;;;34.61;33.20
35419;BME280;21525;41.240;16.500;2022-10-31T09:28:39;101990.16;;;34.72;33.01
35419;BME280;21525;41.240;16.500;2022-10-31T09:31:08;101983.81;;;34.34;33.50
35419;BME280;21525;41.240;16.500;2022-10-31T09:33:56;101986.78;;;34.21;34.27
35419;BME280;21525;41.240;16.500;2022-10-31T09:36:35;101986.28;;;34.84;33.16
35419;BME280;21525;41.240;16.500;2022-10-31T09:39:02;101976.88;;;34.88;33.33
35419;BME280;21525;41.240;16.500;2022-10-31T09:44:28;101991.34;;;35.06;33.72
35419;BME280;21525;41.240;16.500;2022-10-31T09:47:05;101979.72;;;34.86;33.81
35419;BME280;21525;41.240;16.500;2022-10-31T09:49:37;101980.84;;;34.93;33.76
35419;BME280;21525;41.240;16.500;2022-10-31T09:54:53;101982.34;;;34.59;34.07
35419;BME280;21525;41.240;16.500;2022-10-31T09:57:27;101985.72;;;34.80;33.67
35419;BME280;21525;41.240;16.500;2022-10-31T09:59:56;101979.22;;;34.44;34.18
35419;BME280;21525;41.240;16.500;2022-10-31T10:02:36;101989.59;;;33.71;34.93
35419;BME280;21525;41.240;16.500;2022-10-31T10:05:09;101980.94;;;34.55;34.92
35419;BME280;21525;41.240;16.500;2022-10-31T10:08:08;101974.94;;;34.70;34.57
35419;BME280;21525;41.240;16.500;2022-10-31T10:11:36;101979.00;;;34.09;35.04
35419;BME280;21525;41.240;16.500;2022-10-31T10:14:43;101973.84;;;34.15;35.34
35419;BME280;21525;41.240;16.500;2022-10-31T10:17:43;101976.97;;;33.91;35.60
35419;BME280;21525;41.240;16.500;2022-10-31T10:20:36;101979.38;;;33.85;35.53
35419;BME280;21525;41.240;16.500;2022-10-31T10:23:31;101980.94;;;33.78;36.08
35419;BME280;21525;41.240;16.500;2022-10-31T10:26:36;101972.81;;;34.64;34.37
35419;BME280;21525;41.240;16.500;2022-10-31T10:31:49;101977.63;;;33.64;36.71
35419;BME280;21525;41.240;16.500;2022-10-31T10:34:37;101973.72;;;34.07;35.38
35419;BME280;21525;41.240;16.500;2022-10-31T10:39:41;101965.34;;;34.39;34.40
35419;BME280;21525;41.240;16.500;2022-10-31T10:42:14;101973.38;;;33.62;34.93
35419;BME280;21525;41.240;16.500;2022-10-31T10:45:00;101966.88;;;33.24;36.30
35419;BME280;21525;41.240;16.500;2022-10-31T10:48:04;101956.63;;;33.68;35.84
35419;BME280;21525;41.240;16.500;2022-10-31T10:50:38;101968.13;;;33.70;34.90
35419;BME280;21525;41.240;16.500;2022-10-31T10:58:25;101957.75;;;33.46;35.22
35419;BME280;21525;41.240;16.500;2022-10-31T11:00:52;101950.97;;;33.71;34.93
35419;BME280;21525;41.240;16.500;2022-10-31T11:03:19;101958.03;;;33.53;34.95
35419;BME280;21525;41.240;16.500;2022-10-31T11:05:56;101957.22;;;33.22;35.57
35419;BME280;21525;41.240;16.500;2022-10-31T11:08:32;101949.47;;;33.28;35.22
35419;BME280;21525;41.240;16.500;2022-10-31T11:11:04;101952.53;;;33.24;34.89
35419;BME280;21525;41.240;16.500;2022-10-31T11:13:35;101942.72;;;32.83;34.93
35419;BME280;21525;41.240;16.500;2022-10-31T11:16:11;101959.13;;;33.00;34.88
35419;BME280;21525;41.240;16.500;2022-10-31T11:18:41;101949.19;;;33.01;35.25
35419;BME280;21525;41.240;16.500;2022-10-31T11:21:28;101952.63;;;33.03;35.12
35419;BME280;21525;41.240;16.500;2022-10-31T11:24:12;101945.63;;;32.49;35.35
35419;BME280;21525;41.240;16.500;2022-10-31T11:26:41;101945.41;;;31.99;36.53
35419;BME280;21525;41.240;16.500;2022-10-31T11:29:33;101946.75;;;32.67;35.61
35419;BME280;21525;41.240;16.500;2022-10-31T11:32:00;101941.13;;;33.41;34.79
35419;BME280;21525;41.240;16.500;2022-10-31T11:36:51;101942.06;;;32.39;35.14
35419;BME280;21525;41.240;16.500;2022-10-31T11:39:22;101934.06;;;32.58;34.85
35419;BME280;21525;41.240;16.500;2022-10-31T11:41:50;101934.19;;;33.08;34.59
35419;BME280;21525;41.240;16.500;2022-10-31T11:44:28;101940.13;;;33.02;34.22
35419;BME280;21525;41.240;16.500;2022-10-31T11:46:57;101929.25;;;32.83;35.46
35419;BME280;21525;41.240;16.500;2022-10-31T11:49:39;101930.97;;;32.32;35.38
35419;BME280;21525;41.240;16.500;2022-10-31T11:54:50;101927.91;;;32.05;35.16
35419;BME280;21525;41.240;16.500;2022-10-31T11:57:29;101919.81;;;32.67;34.33
35419;BME280;21525;41.240;16.500;2022-10-31T11:59:57;101916.81;;;32.91;34.25
35419;BME280;21525;41.240;16.500;2022-10-31T12:02:24;101919.75;;;32.79;33.77
35419;BME280;21525;41.240;16.500;2022-10-31T12:05:21;101913.09;;;32.83;33.32
35419;BME280;21525;41.240;16.500;2022-10-31T12:07:49;101921.88;;;32.13;33.76
35419;BME280;21525;41.240;16.500;2022-10-31T12:10:15;101909.22;;;32.45;33.01
35419;BME280;21525;41.240;16.500;2022-10-31T12:18:06;101904.88;;;32.12;33.71
35419;BME280;21525;41.240;16.500;2022-10-31T12:31:11;101898.94;;;30.89;37.53
35419;BME280;21525;41.240;16.500;2022-10-31T12:33:44;101900.44;;;30.82;36.60
35419;BME280;21525;41.240;16.500;2022-10-31T12:39:06;101895.16;;;30.91;36.40
35419;BME280;21525;41.240;16.500;2022-10-31T12:50:35;101893.41;;;29.88;37.85
35419;BME280;21525;41.240;16.500;2022-10-31T12:57:37;101881.06;;;30.10;37.18
35419;BME280;21525;41.240;16.500;2022-10-31T13:00:15;101879.38;;;30.20;36.76
35419;BME280;21525;41.240;16.500;2022-10-31T13:05:40;101885.75;;;29.23;38.02
35419;BME280;21525;41.240;16.500;2022-10-31T13:08:11;101873.00;;;30.10;37.46
35419;BME280;21525;41.240;16.500;2022-10-31T13:10:48;101873.84;;;30.10;37.80
35419;BME280;21525;41.240;16.500;2022-10-31T13:16:37;101868.25;;;30.13;39.12
35419;BME280;21525;41.240;16.500;2022-10-31T13:22:06;101868.44;;;30.56;38.02
35419;BME280;21525;41.240;16.500;2022-10-31T13:24:38;101875.19;;;30.04;39.20
35419;BME280;21525;41.240;16.500;2022-10-31T13:27:21;101877.09;;;29.44;41.11
35419;BME280;21525;41.240;16.500;2022-10-31T13:32:14;101879.88;;;29.05;42.51
35419;BME280;21525;41.240;16.500;2022-10-31T13:34:42;101877.16;;;28.56;43.17
35419;BME280;21525;41.240;16.500;2022-10-31T13:37:32;101871.22;;;29.86;41.67
35419;BME280;21525;41.240;16.500;2022-10-31T13:43:24;101872.91;;;29.39;42.55
35419;BME280;21525;41.240;16.500;2022-10-31T13:45:51;101877.78;;;29.58;42.43
35419;BME280;21525;41.240;16.500;2022-10-31T13:48:18;101870.09;;;29.54;43.06
35419;BME280;21525;41.240;16.500;2022-10-31T13:51:03;101864.03;;;29.98;43.12
35419;BME280;21525;41.240;16.500;2022-10-31T13:56:28;101871.41;;;29.35;45.18
35419;BME280;21525;41.240;16.500;2022-10-31T14:01:23;101879.78;;;28.05;48.56
35419;BME280;21525;41.240;16.500;2022-10-31T14:04:15;101870.28;;;27.48;49.58
35419;BME280;21525;41.240;16.500;2022-10-31T14:09:34;101875.44;;;28.30;49.29
35419;BME280;21525;41.240;16.500;2022-10-31T14:12:26;101875.00;;;28.87;46.83
35419;BME280;21525;41.240;16.500;2022-10-31T14:14:59;101876.34;;;29.05;47.63
35419;BME280;21525;41.240;16.500;2022-10-31T14:17:38;101879.28;;;28.38;48.56
35419;BME280;21525;41.240;16.500;2022-10-31T14:22:37;101872.97;;;28.77;47.83
35419;BME280;21525;41.240;16.500;2022-10-31T14:25:33;101875.97;;;28.86;49.03
35419;BME280;21525;41.240;16.500;2022-10-31T14:28:18;101869.63;;;28.74;49.51
35419;BME280;21525;41.240;16.500;2022-10-31T14:30:53;101878.34;;;28.39;50.14
35419;BME280;21525;41.240;16.500;2022-10-31T14:33:20;101874.91;;;28.50;50.17
35419;BME280;21525;41.240;16.500;2022-10-31T14:36:02;101865.31;;;29.33;47.77
35419;BME280;21525;41.240;16.500;2022-10-31T14:49:14;101875.56;;;28.54;51.76
35419;BME280;21525;41.240;16.500;2022-10-31T14:51:46;101868.78;;;28.10;54.09
35419;BME280;21525;41.240;16.500;2022-10-31T14:54:19;101875.97;;;28.60;52.63
35419;BME280;21525;41.240;16.500;2022-10-31T14:56:51;101871.25;;;28.76;52.39
35419;BME280;21525;41.240;16.500;2022-10-31T14:59:22;101875.13;;;27.82;54.94
35419;BME280;21525;41.240;16.500;2022-10-31T15:01:59;101868.47;;;28.27;55.88
35419;BME280;21525;41.240;16.500;2022-10-31T15:04:27;101868.56;;;28.76;55.28
35419;BME280;21525;41.240;16.500;2022-10-31T15:07:00;101876.06;;;28.71;55.75
35419;BME280;21525;41.240;16.500;2022-10-31T15:09:35;101866.41;;;28.94;55.57
35419;BME280;21525;41.240;16.500;2022-10-31T15:12:24;101868.91;;;28.34;58.38
35419;BME280;21525;41.240;16.500;2022-10-31T15:14:51;101869.13;;;28.82;56.97